Terminal Aerodrome Forecast
Issued by NWS Cleveland, OH

Home | Current Version | Previous Version | Text Only | Print | Product List | Glossary On
Versions: 1 2 3 4 5 6 7 8 9 10 11 12 13 14 15 16 17 18 19 20 21 22 23 24 25
480
FTUS41 KCLE 301138
TAFTOL
TAF
KTOL 301138Z 3012/0112 09010G20KT P6SM OVC015
      TEMPO 3012/3015 BKN008
     FM301500 12010KT P6SM OVC025
     FM301700 15012G20KT P6SM OVC035
     FM302200 21010G20KT 4SM SHRA OVC025=

USA.gov is the U.S. government's official web portal to all federal, state and local government web resources and services.